Decoded Metar for TJNR (ROOSEVELT ROADS in PUERTO RICO) (IATA:NRR) | Meteo·Mobile Aviation Weather
aviador You're here:

TJNR Decoded Metar

ROOSEVELT ROADS in PUERTO RICO
Report Time2020-02-22 21:53:00
UTC Time2020-02-22 22:08:52
Flight Rules vfr VFR
Wind190° at 07 kt
Visibility9999 m
Phenomena:N/A
Clouds:N/A
Expected CloudBase > 3,200 ft AGL from Temp-Dew spread
CeilingNone
Temp28°C (ISA +13)
Dew Point20°C (62% RH)
Heat Index29.7°C
QNH1015 hPa
Density Alt1,785 ft
Elevation39 ft
Report Wrong Elevation
Raw Report
METAR TJNR 222153Z AUTO 19007KT 10SM CLR 28/20 A2996 RMK AO2 SLP146
T02780200=

Extra information for TJNR:More info

Metar Taf Metar & Taf Last 4 Metars F.Rules Stats Wind Profile Meteogram Temp Stats Airport Information Weather charts Add Link Nearby VenuesMetar ALERT Operation Metar Decoded Social comments